sensor_id;sensor_type;location;lat;lon;timestamp;pressure;altitude;pressure_sealevel;temperature;humidity
59103;BME280;43999;51.660;5.616;2023-04-27T00:00:55;101867.34;;;3.95;100.00
59103;BME280;43999;51.660;5.616;2023-04-27T00:03:25;101861.31;;;3.91;100.00
59103;BME280;43999;51.660;5.616;2023-04-27T00:05:58;101869.09;;;3.90;100.00
59103;BME280;43999;51.660;5.616;2023-04-27T00:08:27;101863.94;;;3.90;100.00
59103;BME280;43999;51.660;5.616;2023-04-27T00:10:58;101876.03;;;3.91;100.00
59103;BME280;43999;51.660;5.616;2023-04-27T00:13:26;101879.47;;;3.90;100.00
59103;BME280;43999;51.660;5.616;2023-04-27T00:15:54;101866.53;;;3.87;100.00
59103;BME280;43999;51.660;5.616;2023-04-27T00:18:21;101877.81;;;3.87;100.00
59103;BME280;43999;51.660;5.616;2023-04-27T00:20:49;101880.41;;;3.87;100.00
59103;BME280;43999;51.660;5.616;2023-04-27T00:23:17;101876.09;;;3.83;100.00
59103;BME280;43999;51.660;5.616;2023-04-27T00:25:46;101872.66;;;3.81;100.00
59103;BME280;43999;51.660;5.616;2023-04-27T00:28:13;101870.09;;;3.80;100.00
59103;BME280;43999;51.660;5.616;2023-04-27T00:30:42;101871.84;;;3.76;100.00
59103;BME280;43999;51.660;5.616;2023-04-27T00:33:10;101871.84;;;3.73;100.00
59103;BME280;43999;51.660;5.616;2023-04-27T00:35:39;101875.34;;;3.73;100.00
59103;BME280;43999;51.660;5.616;2023-04-27T00:38:07;101871.84;;;3.73;100.00
59103;BME280;43999;51.660;5.616;2023-04-27T00:40:34;101873.63;;;3.71;100.00
59103;BME280;43999;51.660;5.616;2023-04-27T00:43:04;101877.09;;;3.67;100.00
59103;BME280;43999;51.660;5.616;2023-04-27T00:45:41;101880.63;;;3.61;100.00
59103;BME280;43999;51.660;5.616;2023-04-27T00:48:13;101878.06;;;3.56;100.00
59103;BME280;43999;51.660;5.616;2023-04-27T00:50:46;101875.53;;;3.49;100.00
59103;BME280;43999;51.660;5.616;2023-04-27T00:53:16;101886.72;;;3.51;100.00
59103;BME280;43999;51.660;5.616;2023-04-27T00:55:48;101882.47;;;3.42;100.00
59103;BME280;43999;51.660;5.616;2023-04-27T00:58:20;101875.59;;;3.39;100.00
59103;BME280;43999;51.660;5.616;2023-04-27T01:00:49;101863.53;;;3.35;100.00
59103;BME280;43999;51.660;5.616;2023-04-27T01:03:38;101864.41;;;3.30;100.00
59103;BME280;43999;51.660;5.616;2023-04-27T01:06:12;101877.38;;;3.28;100.00
59103;BME280;43999;51.660;5.616;2023-04-27T01:08:42;101871.41;;;3.21;100.00
59103;BME280;43999;51.660;5.616;2023-04-27T01:11:10;101876.59;;;3.18;100.00
59103;BME280;43999;51.660;5.616;2023-04-27T01:13:44;101873.19;;;3.15;100.00
59103;BME280;43999;51.660;5.616;2023-04-27T01:16:12;101868.00;;;3.13;100.00
59103;BME280;43999;51.660;5.616;2023-04-27T01:18:41;101868.88;;;3.12;100.00
59103;BME280;43999;51.660;5.616;2023-04-27T01:21:12;101868.88;;;3.09;100.00
59103;BME280;43999;51.660;5.616;2023-04-27T01:23:39;101865.47;;;3.02;100.00
59103;BME280;43999;51.660;5.616;2023-04-27T01:26:09;101865.47;;;3.04;100.00
59103;BME280;43999;51.660;5.616;2023-04-27T01:28:41;101879.28;;;3.01;100.00
59103;BME280;43999;51.660;5.616;2023-04-27T01:31:11;101868.13;;;2.95;100.00
59103;BME280;43999;51.660;5.616;2023-04-27T01:33:40;101875.88;;;2.95;100.00
59103;BME280;43999;51.660;5.616;2023-04-27T01:36:09;101878.47;;;2.93;100.00
59103;BME280;43999;51.660;5.616;2023-04-27T01:38:37;101860.38;;;2.89;100.00
59103;BME280;43999;51.660;5.616;2023-04-27T01:41:07;101869.84;;;2.88;100.00
59103;BME280;43999;51.660;5.616;2023-04-27T01:43:35;101866.44;;;2.84;100.00
59103;BME280;43999;51.660;5.616;2023-04-27T01:46:10;101869.88;;;2.82;100.00
59103;BME280;43999;51.660;5.616;2023-04-27T01:48:41;101870.78;;;2.81;100.00
59103;BME280;43999;51.660;5.616;2023-04-27T01:51:12;101868.19;;;2.78;100.00
59103;BME280;43999;51.660;5.616;2023-04-27T01:53:43;101865.63;;;2.75;100.00
59103;BME280;43999;51.660;5.616;2023-04-27T01:56:12;101863.91;;;2.72;100.00
59103;BME280;43999;51.660;5.616;2023-04-27T01:58:42;101863.91;;;2.72;100.00
59103;BME280;43999;51.660;5.616;2023-04-27T02:01:10;101858.75;;;2.71;100.00
59103;BME280;43999;51.660;5.616;2023-04-27T02:03:39;101864.75;;;2.71;100.00
59103;BME280;43999;51.660;5.616;2023-04-27T02:06:11;101861.34;;;2.66;100.00
59103;BME280;43999;51.660;5.616;2023-04-27T02:08:41;101851.84;;;2.65;100.00
59103;BME280;43999;51.660;5.616;2023-04-27T02:11:09;101854.44;;;2.66;100.00
59103;BME280;43999;51.660;5.616;2023-04-27T02:13:37;101855.31;;;2.65;100.00
59103;BME280;43999;51.660;5.616;2023-04-27T02:16:07;101849.25;;;2.65;100.00
59103;BME280;43999;51.660;5.616;2023-04-27T02:18:35;101847.56;;;2.65;100.00
59103;BME280;43999;51.660;5.616;2023-04-27T02:21:07;101848.41;;;2.66;100.00
59103;BME280;43999;51.660;5.616;2023-04-27T02:23:36;101845.84;;;2.63;100.00
59103;BME280;43999;51.660;5.616;2023-04-27T02:26:04;101847.56;;;2.64;100.00
59103;BME280;43999;51.660;5.616;2023-04-27T02:28:32;101842.41;;;2.62;100.00
59103;BME280;43999;51.660;5.616;2023-04-27T02:31:00;101849.31;;;2.63;100.00
59103;BME280;43999;51.660;5.616;2023-04-27T02:33:30;101837.22;;;2.62;100.00
59103;BME280;43999;51.660;5.616;2023-04-27T02:35:57;101846.72;;;2.62;100.00
59103;BME280;43999;51.660;5.616;2023-04-27T02:38:29;101838.97;;;2.59;100.00
59103;BME280;43999;51.660;5.616;2023-04-27T02:40:56;101834.66;;;2.58;100.00
59103;BME280;43999;51.660;5.616;2023-04-27T02:43:26;101827.75;;;2.57;100.00
59103;BME280;43999;51.660;5.616;2023-04-27T02:45:56;101830.34;;;2.55;100.00
59103;BME280;43999;51.660;5.616;2023-04-27T02:48:28;101831.25;;;2.51;100.00
59103;BME280;43999;51.660;5.616;2023-04-27T02:51:01;101820.91;;;2.46;100.00
59103;BME280;43999;51.660;5.616;2023-04-27T02:53:31;101830.38;;;2.49;100.00
59103;BME280;43999;51.660;5.616;2023-04-27T02:56:00;101832.09;;;2.48;100.00
59103;BME280;43999;51.660;5.616;2023-04-27T02:58:27;101838.16;;;2.44;100.00
59103;BME280;43999;51.660;5.616;2023-04-27T03:00:55;101830.41;;;2.38;100.00
59103;BME280;43999;51.660;5.616;2023-04-27T03:03:24;101837.31;;;2.41;100.00
59103;BME280;43999;51.660;5.616;2023-04-27T03:05:51;101837.31;;;2.39;100.00
59103;BME280;43999;51.660;5.616;2023-04-27T03:08:19;101834.75;;;2.38;100.00
59103;BME280;43999;51.660;5.616;2023-04-27T03:10:47;101829.56;;;2.36;100.00
59103;BME280;43999;51.660;5.616;2023-04-27T03:13:15;101833.91;;;2.34;100.00
59103;BME280;43999;51.660;5.616;2023-04-27T03:15:50;101833.03;;;2.32;100.00
59103;BME280;43999;51.660;5.616;2023-04-27T03:18:21;101839.09;;;2.31;100.00
59103;BME280;43999;51.660;5.616;2023-04-27T03:20:49;101843.38;;;2.30;100.00
59103;BME280;43999;51.660;5.616;2023-04-27T03:23:16;101843.38;;;2.29;100.00
59103;BME280;43999;51.660;5.616;2023-04-27T03:25:44;101837.38;;;2.25;100.00
59103;BME280;43999;51.660;5.616;2023-04-27T03:28:12;101839.97;;;2.24;100.00
59103;BME280;43999;51.660;5.616;2023-04-27T03:30:39;101835.66;;;2.20;100.00
59103;BME280;43999;51.660;5.616;2023-04-27T03:33:08;101838.22;;;2.20;100.00
59103;BME280;43999;51.660;5.616;2023-04-27T03:35:35;101838.25;;;2.18;100.00
59103;BME280;43999;51.660;5.616;2023-04-27T03:38:05;101838.25;;;2.17;100.00
59103;BME280;43999;51.660;5.616;2023-04-27T03:40:33;101846.00;;;2.17;100.00
59103;BME280;43999;51.660;5.616;2023-04-27T03:43:00;101853.75;;;2.15;100.00
59103;BME280;43999;51.660;5.616;2023-04-27T03:45:28;101850.34;;;2.11;100.00
59103;BME280;43999;51.660;5.616;2023-04-27T03:47:56;101855.50;;;2.11;100.00
59103;BME280;43999;51.660;5.616;2023-04-27T03:50:26;101852.94;;;2.10;100.00
59103;BME280;43999;51.660;5.616;2023-04-27T03:52:56;101858.09;;;2.08;100.00
59103;BME280;43999;51.660;5.616;2023-04-27T03:55:27;101856.38;;;2.07;100.00
59103;BME280;43999;51.660;5.616;2023-04-27T03:57:59;101849.50;;;2.06;100.00
59103;BME280;43999;51.660;5.616;2023-04-27T04:00:26;101857.25;;;2.03;100.00
59103;BME280;43999;51.660;5.616;2023-04-27T04:02:57;101855.53;;;2.02;100.00
59103;BME280;43999;51.660;5.616;2023-04-27T04:05:28;101860.69;;;2.01;100.00
59103;BME280;43999;51.660;5.616;2023-04-27T04:07:59;101853.81;;;1.96;100.00
59103;BME280;43999;51.660;5.616;2023-04-27T04:10:28;101859.84;;;1.95;100.00
59103;BME280;43999;51.660;5.616;2023-04-27T04:12:57;101862.44;;;1.94;100.00
59103;BME280;43999;51.660;5.616;2023-04-27T04:15:26;101856.41;;;1.92;100.00
59103;BME280;43999;51.660;5.616;2023-04-27T04:17:54;101863.28;;;1.91;100.00
59103;BME280;43999;51.660;5.616;2023-04-27T04:20:22;101863.31;;;1.90;100.00
59103;BME280;43999;51.660;5.616;2023-04-27T04:22:50;101861.56;;;1.90;100.00
59103;BME280;43999;51.660;5.616;2023-04-27T04:25:17;101866.72;;;1.90;100.00
59103;BME280;43999;51.660;5.616;2023-04-27T04:27:46;101865.03;;;1.89;100.00
59103;BME280;43999;51.660;5.616;2023-04-27T04:30:17;101875.38;;;1.89;100.00
59103;BME280;43999;51.660;5.616;2023-04-27T04:32:49;101876.22;;;1.90;100.00
59103;BME280;43999;51.660;5.616;2023-04-27T04:35:17;101877.06;;;1.90;100.00
59103;BME280;43999;51.660;5.616;2023-04-27T04:37:45;101880.53;;;1.92;100.00
59103;BME280;43999;51.660;5.616;2023-04-27T04:40:16;101883.97;;;2.05;100.00
59103;BME280;43999;51.660;5.616;2023-04-27T04:42:44;101872.75;;;2.06;100.00
59103;BME280;43999;51.660;5.616;2023-04-27T04:45:13;101886.53;;;2.18;100.00
59103;BME280;43999;51.660;5.616;2023-04-27T04:47:41;101889.09;;;2.28;100.00
59103;BME280;43999;51.660;5.616;2023-04-27T04:50:10;101889.91;;;2.37;100.00
59103;BME280;43999;51.660;5.616;2023-04-27T04:52:44;101886.47;;;2.39;100.00
59103;BME280;43999;51.660;5.616;2023-04-27T04:55:12;101889.91;;;2.43;100.00
59103;BME280;43999;51.660;5.616;2023-04-27T04:57:40;101887.28;;;2.49;100.00
59103;BME280;43999;51.660;5.616;2023-04-27T05:00:09;101884.69;;;2.50;100.00
59103;BME280;43999;51.660;5.616;2023-04-27T05:02:40;101896.75;;;2.58;100.00
59103;BME280;43999;51.660;5.616;2023-04-27T05:05:09;101892.41;;;2.66;100.00
59103;BME280;43999;51.660;5.616;2023-04-27T05:07:38;101901.88;;;2.75;100.00
59103;BME280;43999;51.660;5.616;2023-04-27T05:10:05;101900.91;;;2.90;100.00
59103;BME280;43999;51.660;5.616;2023-04-27T05:12:34;101905.19;;;3.01;100.00
59103;BME280;43999;51.660;5.616;2023-04-27T05:15:03;101903.38;;;3.11;100.00
59103;BME280;43999;51.660;5.616;2023-04-27T05:17:31;101901.66;;;3.16;100.00
59103;BME280;43999;51.660;5.616;2023-04-27T05:19:58;101902.50;;;3.17;100.00
59103;BME280;43999;51.660;5.616;2023-04-27T05:22:29;101904.22;;;3.19;100.00
59103;BME280;43999;51.660;5.616;2023-04-27T05:24:58;101907.69;;;3.18;100.00
59103;BME280;43999;51.660;5.616;2023-04-27T05:27:26;101905.91;;;3.22;100.00
59103;BME280;43999;51.660;5.616;2023-04-27T05:29:54;101900.75;;;3.22;100.00
59103;BME280;43999;51.660;5.616;2023-04-27T05:32:23;101904.19;;;3.27;100.00
59103;BME280;43999;51.660;5.616;2023-04-27T05:34:50;101899.00;;;3.29;100.00
59103;BME280;43999;51.660;5.616;2023-04-27T05:37:19;101905.81;;;3.36;100.00
59103;BME280;43999;51.660;5.616;2023-04-27T05:39:47;101912.69;;;3.43;100.00
59103;BME280;43999;51.660;5.616;2023-04-27T05:42:15;101906.59;;;3.53;100.00
59103;BME280;43999;51.660;5.616;2023-04-27T05:44:44;101901.34;;;3.61;100.00
59103;BME280;43999;51.660;5.616;2023-04-27T05:47:19;101903.00;;;3.67;100.00
59103;BME280;43999;51.660;5.616;2023-04-27T05:49:52;101904.69;;;3.75;100.00
59103;BME280;43999;51.660;5.616;2023-04-27T05:52:21;101901.16;;;3.84;100.00
59103;BME280;43999;51.660;5.616;2023-04-27T05:54:50;101901.03;;;3.97;100.00
59103;BME280;43999;51.660;5.616;2023-04-27T05:57:25;101902.66;;;4.07;100.00
59103;BME280;43999;51.660;5.616;2023-04-27T05:59:53;101908.59;;;4.17;100.00
59103;BME280;43999;51.660;5.616;2023-04-27T06:02:21;101905.94;;;4.24;100.00
59103;BME280;43999;51.660;5.616;2023-04-27T06:04:50;101904.94;;;4.39;100.00
59103;BME280;43999;51.660;5.616;2023-04-27T06:07:20;101904.75;;;4.55;100.00
59103;BME280;43999;51.660;5.616;2023-04-27T06:09:47;101906.28;;;4.73;100.00
59103;BME280;43999;51.660;5.616;2023-04-27T06:12:18;101906.97;;;4.87;100.00
59103;BME280;43999;51.660;5.616;2023-04-27T06:14:45;101905.13;;;4.94;100.00
59103;BME280;43999;51.660;5.616;2023-04-27T06:17:13;101914.56;;;5.01;100.00
59103;BME280;43999;51.660;5.616;2023-04-27T06:19:46;101910.97;;;5.11;100.00
59103;BME280;43999;51.660;5.616;2023-04-27T06:22:14;101903.94;;;5.19;100.00
59103;BME280;43999;51.660;5.616;2023-04-27T06:24:42;101902.06;;;5.28;100.00
59103;BME280;43999;51.660;5.616;2023-04-27T06:27:14;101903.59;;;5.41;100.00
59103;BME280;43999;51.660;5.616;2023-04-27T06:29:42;101897.31;;;5.54;100.00
59103;BME280;43999;51.660;5.616;2023-04-27T06:32:09;101887.53;;;5.70;100.00
59103;BME280;43999;51.660;5.616;2023-04-27T06:34:37;101895.94;;;5.86;100.00
59103;BME280;43999;51.660;5.616;2023-04-27T06:37:04;101897.53;;;5.97;100.00
59103;BME280;43999;51.660;5.616;2023-04-27T06:39:32;101894.69;;;6.10;100.00
59103;BME280;43999;51.660;5.616;2023-04-27T06:42:00;101895.50;;;6.13;100.00
59103;BME280;43999;51.660;5.616;2023-04-27T06:44:32;101911.59;;;6.33;100.00
59103;BME280;43999;51.660;5.616;2023-04-27T06:46:59;101912.94;;;6.54;99.30
59103;BME280;43999;51.660;5.616;2023-04-27T06:49:28;101904.88;;;6.67;100.00
59103;BME280;43999;51.660;5.616;2023-04-27T06:51:55;101901.88;;;6.87;99.34
59103;BME280;43999;51.660;5.616;2023-04-27T06:54:24;101897.88;;;7.09;95.91
59103;BME280;43999;51.660;5.616;2023-04-27T06:56:54;101899.47;;;7.16;94.07
59103;BME280;43999;51.660;5.616;2023-04-27T06:59:22;101895.75;;;7.28;88.62
59103;BME280;43999;51.660;5.616;2023-04-27T07:01:49;101899.00;;;7.36;86.89
59103;BME280;43999;51.660;5.616;2023-04-27T07:04:17;101892.78;;;7.44;87.29
59103;BME280;43999;51.660;5.616;2023-04-27T07:06:45;101892.84;;;7.41;86.36
59103;BME280;43999;51.660;5.616;2023-04-27T07:09:13;101908.16;;;7.54;88.11
59103;BME280;43999;51.660;5.616;2023-04-27T07:11:54;101906.00;;;7.72;86.78
59103;BME280;43999;51.660;5.616;2023-04-27T07:14:22;101892.59;;;7.86;84.62
59103;BME280;43999;51.660;5.616;2023-04-27T07:16:49;101900.03;;;8.01;84.26
59103;BME280;43999;51.660;5.616;2023-04-27T07:19:19;101904.00;;;8.15;85.74
59103;BME280;43999;51.660;5.616;2023-04-27T07:21:53;101901.03;;;8.29;86.05
59103;BME280;43999;51.660;5.616;2023-04-27T07:24:25;101913.41;;;8.55;87.57
59103;BME280;43999;51.660;5.616;2023-04-27T07:26:52;101910.19;;;8.76;87.73
59103;BME280;43999;51.660;5.616;2023-04-27T07:29:23;101915.66;;;8.99;86.53
59103;BME280;43999;51.660;5.616;2023-04-27T07:32:00;101901.75;;;9.25;81.65
59103;BME280;43999;51.660;5.616;2023-04-27T07:34:31;101903.22;;;9.33;80.81
59103;BME280;43999;51.660;5.616;2023-04-27T07:37:11;101907.47;;;9.38;80.44
59103;BME280;43999;51.660;5.616;2023-04-27T07:39:48;101901.94;;;9.47;82.13
59103;BME280;43999;51.660;5.616;2023-04-27T07:42:21;101905.50;;;9.71;79.73
59103;BME280;43999;51.660;5.616;2023-04-27T07:44:50;101904.94;;;9.88;76.81
59103;BME280;43999;51.660;5.616;2023-04-27T07:47:20;101905.19;;;9.80;75.86
59103;BME280;43999;51.660;5.616;2023-04-27T07:49:51;101898.41;;;9.75;77.67
59103;BME280;43999;51.660;5.616;2023-04-27T07:52:19;101891.75;;;9.91;77.12
59103;BME280;43999;51.660;5.616;2023-04-27T07:54:47;101895.91;;;9.97;76.35
59103;BME280;43999;51.660;5.616;2023-04-27T07:57:15;101896.19;;;9.89;76.57
59103;BME280;43999;51.660;5.616;2023-04-27T07:59:44;101893.63;;;9.87;74.92
59103;BME280;43999;51.660;5.616;2023-04-27T08:02:14;101899.22;;;9.77;76.07
59103;BME280;43999;51.660;5.616;2023-04-27T08:04:48;101902.47;;;9.83;75.05
59103;BME280;43999;51.660;5.616;2023-04-27T08:07:19;101896.38;;;9.83;73.99
59103;BME280;43999;51.660;5.616;2023-04-27T08:09:50;101896.34;;;9.84;72.11
59103;BME280;43999;51.660;5.616;2023-04-27T08:12:20;101897.03;;;9.90;72.07
59103;BME280;43999;51.660;5.616;2023-04-27T08:14:49;101902.06;;;9.96;71.34
59103;BME280;43999;51.660;5.616;2023-04-27T08:17:19;101907.25;;;9.97;71.38
59103;BME280;43999;51.660;5.616;2023-04-27T08:19:47;101908.84;;;10.01;71.60
59103;BME280;43999;51.660;5.616;2023-04-27T08:22:19;101915.75;;;10.04;70.98
59103;BME280;43999;51.660;5.616;2023-04-27T08:25:09;101901.47;;;10.13;69.94
59103;BME280;43999;51.660;5.616;2023-04-27T08:27:38;101909.44;;;10.10;70.50
59103;BME280;43999;51.660;5.616;2023-04-27T08:30:08;101900.34;;;10.20;71.43
59103;BME280;43999;51.660;5.616;2023-04-27T08:32:35;101898.19;;;10.33;71.45
59103;BME280;43999;51.660;5.616;2023-04-27T08:35:03;101897.63;;;10.48;70.32
59103;BME280;43999;51.660;5.616;2023-04-27T08:37:33;101897.00;;;10.65;69.12
59103;BME280;43999;51.660;5.616;2023-04-27T08:40:04;101893.03;;;10.79;69.09
59103;BME280;43999;51.660;5.616;2023-04-27T08:42:36;101887.91;;;10.98;68.10
59103;BME280;43999;51.660;5.616;2023-04-27T08:45:09;101883.72;;;11.16;64.96
59103;BME280;43999;51.660;5.616;2023-04-27T08:47:40;101887.69;;;11.26;64.63
59103;BME280;43999;51.660;5.616;2023-04-27T08:50:11;101884.31;;;11.44;64.36
59103;BME280;43999;51.660;5.616;2023-04-27T08:52:47;101887.06;;;11.63;62.79
59103;BME280;43999;51.660;5.616;2023-04-27T08:55:15;101880.09;;;11.83;62.37
59103;BME280;43999;51.660;5.616;2023-04-27T08:57:56;101877.88;;;11.94;61.13
59103;BME280;43999;51.660;5.616;2023-04-27T09:00:40;101875.00;;;12.00;60.67
59103;BME280;43999;51.660;5.616;2023-04-27T09:03:24;101887.25;;;12.20;60.01
59103;BME280;43999;51.660;5.616;2023-04-27T09:05:53;101887.13;;;12.44;60.00
59103;BME280;43999;51.660;5.616;2023-04-27T09:09:01;101881.50;;;12.71;58.32
59103;BME280;43999;51.660;5.616;2023-04-27T09:11:39;101878.88;;;12.90;55.28
59103;BME280;43999;51.660;5.616;2023-04-27T09:14:21;101884.19;;;12.88;56.17
59103;BME280;43999;51.660;5.616;2023-04-27T09:16:56;101879.75;;;12.90;55.42
59103;BME280;43999;51.660;5.616;2023-04-27T09:19:28;101887.69;;;12.89;56.34
59103;BME280;43999;51.660;5.616;2023-04-27T09:22:09;101876.09;;;12.93;55.60
59103;BME280;43999;51.660;5.616;2023-04-27T09:24:51;101874.19;;;12.97;54.34
59103;BME280;43999;51.660;5.616;2023-04-27T09:27:46;101883.31;;;13.07;54.11
59103;BME280;43999;51.660;5.616;2023-04-27T09:30:16;101878.41;;;13.18;54.45
59103;BME280;43999;51.660;5.616;2023-04-27T09:32:55;101878.56;;;13.34;52.68
59103;BME280;43999;51.660;5.616;2023-04-27T09:35:27;101883.00;;;13.51;50.55
59103;BME280;43999;51.660;5.616;2023-04-27T09:38:01;101872.00;;;13.60;50.46
59103;BME280;43999;51.660;5.616;2023-04-27T09:40:29;101868.59;;;13.76;49.24
59103;BME280;43999;51.660;5.616;2023-04-27T09:43:00;101868.44;;;13.79;47.74
59103;BME280;43999;51.660;5.616;2023-04-27T09:45:37;101866.88;;;13.75;49.89
59103;BME280;43999;51.660;5.616;2023-04-27T09:48:12;101865.66;;;13.82;49.59
59103;BME280;43999;51.660;5.616;2023-04-27T09:50:43;101869.56;;;13.91;47.95
59103;BME280;43999;51.660;5.616;2023-04-27T09:53:32;101861.09;;;14.02;48.48
59103;BME280;43999;51.660;5.616;2023-04-27T09:56:19;101846.19;;;14.18;48.06
59103;BME280;43999;51.660;5.616;2023-04-27T09:59:29;101855.09;;;14.33;48.45
59103;BME280;43999;51.660;5.616;2023-04-27T10:02:16;101850.34;;;14.40;47.54
59103;BME280;43999;51.660;5.616;2023-04-27T10:08:34;101850.44;;;14.54;48.76
59103;BME280;43999;51.660;5.616;2023-04-27T10:11:16;101853.34;;;14.65;47.81
59103;BME280;43999;51.660;5.616;2023-04-27T10:13:54;101852.75;;;14.76;46.14
59103;BME280;43999;51.660;5.616;2023-04-27T10:16:24;101849.88;;;14.81;43.91
59103;BME280;43999;51.660;5.616;2023-04-27T10:18:56;101850.13;;;14.92;43.85
59103;BME280;43999;51.660;5.616;2023-04-27T10:21:24;101853.75;;;15.05;45.19
59103;BME280;43999;51.660;5.616;2023-04-27T10:23:55;101844.97;;;15.21;40.81
59103;BME280;43999;51.660;5.616;2023-04-27T10:26:47;101844.78;;;15.24;41.81
59103;BME280;43999;51.660;5.616;2023-04-27T10:29:19;101850.69;;;15.29;40.38
59103;BME280;43999;51.660;5.616;2023-04-27T10:31:48;101846.56;;;15.39;39.94
59103;BME280;43999;51.660;5.616;2023-04-27T10:34:17;101844.81;;;15.54;41.54
59103;BME280;43999;51.660;5.616;2023-04-27T10:37:05;101845.28;;;15.77;39.72
59103;BME280;43999;51.660;5.616;2023-04-27T10:39:37;101858.97;;;15.84;38.79
59103;BME280;43999;51.660;5.616;2023-04-27T10:42:36;101845.94;;;15.95;39.10
59103;BME280;43999;51.660;5.616;2023-04-27T10:45:05;101847.38;;;16.15;40.09
59103;BME280;43999;51.660;5.616;2023-04-27T10:47:43;101848.03;;;16.33;38.55
59103;BME280;43999;51.660;5.616;2023-04-27T10:50:15;101838.75;;;16.55;37.61
59103;BME280;43999;51.660;5.616;2023-04-27T10:52:45;101849.06;;;16.59;37.46
59103;BME280;43999;51.660;5.616;2023-04-27T10:55:34;101845.72;;;16.56;38.34
59103;BME280;43999;51.660;5.616;2023-04-27T10:58:03;101838.38;;;16.61;37.04
59103;BME280;43999;51.660;5.616;2023-04-27T11:00:39;101830.94;;;16.80;38.03
59103;BME280;43999;51.660;5.616;2023-04-27T11:03:22;101826.63;;;17.07;38.06
59103;BME280;43999;51.660;5.616;2023-04-27T11:06:04;101833.19;;;17.41;36.67
59103;BME280;43999;51.660;5.616;2023-04-27T11:08:44;101823.03;;;17.61;34.64
59103;BME280;43999;51.660;5.616;2023-04-27T11:11:15;101822.63;;;17.80;35.02
59103;BME280;43999;51.660;5.616;2023-04-27T11:13:49;101814.81;;;17.91;35.19
59103;BME280;43999;51.660;5.616;2023-04-27T11:16:22;101814.81;;;18.04;34.17
59103;BME280;43999;51.660;5.616;2023-04-27T11:18:50;101822.13;;;18.13;34.14
59103;BME280;43999;51.660;5.616;2023-04-27T11:21:19;101804.72;;;18.09;33.57
59103;BME280;43999;51.660;5.616;2023-04-27T11:23:52;101794.00;;;18.10;33.58
59103;BME280;43999;51.660;5.616;2023-04-27T11:26:23;101802.94;;;18.09;33.76
59103;BME280;43999;51.660;5.616;2023-04-27T11:29:04;101796.31;;;18.15;33.59
59103;BME280;43999;51.660;5.616;2023-04-27T11:31:42;101792.19;;;18.24;33.36
59103;BME280;43999;51.660;5.616;2023-04-27T11:34:23;101790.69;;;18.33;33.13
59103;BME280;43999;51.660;5.616;2023-04-27T11:37:20;101786.50;;;18.41;33.80
59103;BME280;43999;51.660;5.616;2023-04-27T11:39:50;101787.38;;;18.42;33.33
59103;BME280;43999;51.660;5.616;2023-04-27T11:42:29;101782.41;;;18.37;33.87
59103;BME280;43999;51.660;5.616;2023-04-27T11:45:04;101775.50;;;18.35;33.71
59103;BME280;43999;51.660;5.616;2023-04-27T11:47:33;101777.75;;;18.52;33.74
59103;BME280;43999;51.660;5.616;2023-04-27T11:50:07;101777.59;;;18.67;32.28
59103;BME280;43999;51.660;5.616;2023-04-27T11:52:37;101779.25;;;18.56;30.92
59103;BME280;43999;51.660;5.616;2023-04-27T11:55:07;101784.72;;;18.29;31.25
59103;BME280;43999;51.660;5.616;2023-04-27T11:57:45;101781.72;;;17.97;33.02
59103;BME280;43999;51.660;5.616;2023-04-27T12:00:15;101777.16;;;17.73;32.41
59103;BME280;43999;51.660;5.616;2023-04-27T12:02:43;101782.22;;;17.50;33.34
59103;BME280;43999;51.660;5.616;2023-04-27T12:05:11;101778.41;;;17.42;33.94
59103;BME280;43999;51.660;5.616;2023-04-27T12:07:40;101769.47;;;17.43;33.04
59103;BME280;43999;51.660;5.616;2023-04-27T12:10:10;101757.84;;;17.32;32.85
59103;BME280;43999;51.660;5.616;2023-04-27T12:12:42;101764.28;;;17.15;32.47
59103;BME280;43999;51.660;5.616;2023-04-27T12:15:10;101769.13;;;17.09;33.49
59103;BME280;43999;51.660;5.616;2023-04-27T12:17:38;101769.84;;;16.98;33.53
59103;BME280;43999;51.660;5.616;2023-04-27T12:20:11;101765.91;;;16.91;34.02
59103;BME280;43999;51.660;5.616;2023-04-27T12:22:53;101756.53;;;16.85;33.89
59103;BME280;43999;51.660;5.616;2023-04-27T12:25:21;101756.47;;;16.87;33.67
59103;BME280;43999;51.660;5.616;2023-04-27T12:27:49;101751.22;;;16.85;32.57
59103;BME280;43999;51.660;5.616;2023-04-27T12:30:18;101747.28;;;16.92;32.80
59103;BME280;43999;51.660;5.616;2023-04-27T12:32:46;101753.56;;;17.04;31.71
59103;BME280;43999;51.660;5.616;2023-04-27T12:35:21;101749.94;;;17.05;34.44
59103;BME280;43999;51.660;5.616;2023-04-27T12:37:52;101752.38;;;17.08;33.17
59103;BME280;43999;51.660;5.616;2023-04-27T12:40:20;101749.81;;;16.94;33.65
59103;BME280;43999;51.660;5.616;2023-04-27T12:42:50;101746.53;;;16.90;33.35
59103;BME280;43999;51.660;5.616;2023-04-27T12:45:22;101729.69;;;16.91;33.96
59103;BME280;43999;51.660;5.616;2023-04-27T12:47:52;101748.47;;;17.01;32.41
59103;BME280;43999;51.660;5.616;2023-04-27T12:50:32;101739.31;;;16.92;31.81
59103;BME280;43999;51.660;5.616;2023-04-27T12:53:03;101735.06;;;16.90;32.56
59103;BME280;43999;51.660;5.616;2023-04-27T12:55:31;101732.31;;;16.91;32.42
59103;BME280;43999;51.660;5.616;2023-04-27T12:58:04;101738.09;;;16.83;33.51
59103;BME280;43999;51.660;5.616;2023-04-27T13:00:32;101739.28;;;16.79;32.29
59103;BME280;43999;51.660;5.616;2023-04-27T13:03:03;101742.19;;;16.89;33.94
59103;BME280;43999;51.660;5.616;2023-04-27T13:05:37;101732.59;;;17.01;32.82
59103;BME280;43999;51.660;5.616;2023-04-27T13:08:07;101731.63;;;17.15;33.55
59103;BME280;43999;51.660;5.616;2023-04-27T13:10:41;101719.34;;;17.27;32.85
59103;BME280;43999;51.660;5.616;2023-04-27T13:13:19;101719.91;;;17.45;32.91
59103;BME280;43999;51.660;5.616;2023-04-27T13:15:47;101729.66;;;17.70;32.78